sensor_id;sensor_type;location;lat;lon;timestamp;pressure;altitude;pressure_sealevel;temperature;humidity
35892;BME280;21993;42.672;23.296;2023-11-21T00:02:20;94557.22;;;7.77;68.06
35892;BME280;21993;42.672;23.296;2023-11-21T00:04:46;94559.84;;;7.77;68.00
35892;BME280;21993;42.672;23.296;2023-11-21T00:07:12;94563.84;;;7.81;67.38
35892;BME280;21993;42.672;23.296;2023-11-21T00:09:38;94557.34;;;7.75;67.45
35892;BME280;21993;42.672;23.296;2023-11-21T00:12:03;94552.00;;;7.77;67.31
35892;BME280;21993;42.672;23.296;2023-11-21T00:14:29;94559.13;;;7.75;67.75
35892;BME280;21993;42.672;23.296;2023-11-21T00:16:55;94562.31;;;7.78;66.76
35892;BME280;21993;42.672;23.296;2023-11-21T00:19:20;94564.31;;;7.86;66.75
35892;BME280;21993;42.672;23.296;2023-11-21T00:21:46;94573.25;;;7.83;66.22
35892;BME280;21993;42.672;23.296;2023-11-21T00:24:12;94569.81;;;7.72;67.86
35892;BME280;21993;42.672;23.296;2023-11-21T00:26:39;94552.47;;;7.71;67.64
35892;BME280;21993;42.672;23.296;2023-11-21T00:29:05;94562.47;;;7.66;68.17
35892;BME280;21993;42.672;23.296;2023-11-21T00:31:36;94544.91;;;7.68;67.44
35892;BME280;21993;42.672;23.296;2023-11-21T00:34:05;94542.97;;;7.70;67.77
35892;BME280;21993;42.672;23.296;2023-11-21T00:36:31;94547.38;;;7.69;67.97
35892;BME280;21993;42.672;23.296;2023-11-21T00:38:58;94558.31;;;7.74;67.23
35892;BME280;21993;42.672;23.296;2023-11-21T00:41:24;94552.25;;;7.74;67.41
35892;BME280;21993;42.672;23.296;2023-11-21T00:43:53;94542.72;;;7.73;67.63
35892;BME280;21993;42.672;23.296;2023-11-21T00:46:19;94556.53;;;7.75;67.59
35892;BME280;21993;42.672;23.296;2023-11-21T00:48:44;94552.47;;;7.71;67.87
35892;BME280;21993;42.672;23.296;2023-11-21T00:51:10;94554.97;;;7.72;67.99
35892;BME280;21993;42.672;23.296;2023-11-21T00:53:35;94550.81;;;7.70;67.79
35892;BME280;21993;42.672;23.296;2023-11-21T00:56:00;94549.03;;;7.70;68.31
35892;BME280;21993;42.672;23.296;2023-11-21T00:58:26;94542.50;;;7.65;68.06
35892;BME280;21993;42.672;23.296;2023-11-21T01:00:52;94537.88;;;7.68;67.32
35892;BME280;21993;42.672;23.296;2023-11-21T01:03:18;94538.84;;;7.67;67.65
35892;BME280;21993;42.672;23.296;2023-11-21T01:05:44;94531.63;;;7.59;68.27
35892;BME280;21993;42.672;23.296;2023-11-21T01:08:10;94541.09;;;7.60;68.29
35892;BME280;21993;42.672;23.296;2023-11-21T01:10:36;94540.41;;;7.58;67.88
35892;BME280;21993;42.672;23.296;2023-11-21T01:13:01;94532.31;;;7.61;67.31
35892;BME280;21993;42.672;23.296;2023-11-21T01:15:29;94531.97;;;7.55;67.63
35892;BME280;21993;42.672;23.296;2023-11-21T01:17:54;94529.13;;;7.47;68.56
35892;BME280;21993;42.672;23.296;2023-11-21T01:20:20;94542.19;;;7.58;67.46
35892;BME280;21993;42.672;23.296;2023-11-21T01:22:45;94535.66;;;7.52;67.48
35892;BME280;21993;42.672;23.296;2023-11-21T01:25:13;94544.19;;;7.54;67.42
35892;BME280;21993;42.672;23.296;2023-11-21T01:27:39;94536.97;;;7.47;67.48
35892;BME280;21993;42.672;23.296;2023-11-21T01:30:05;94537.09;;;7.45;67.54
35892;BME280;21993;42.672;23.296;2023-11-21T01:32:33;94535.69;;;7.41;68.08
35892;BME280;21993;42.672;23.296;2023-11-21T01:34:59;94542.91;;;7.38;67.63
35892;BME280;21993;42.672;23.296;2023-11-21T01:37:25;94539.72;;;7.34;68.09
35892;BME280;21993;42.672;23.296;2023-11-21T01:39:53;94540.09;;;7.18;68.16
35892;BME280;21993;42.672;23.296;2023-11-21T01:42:20;94546.13;;;7.19;68.01
35892;BME280;21993;42.672;23.296;2023-11-21T01:44:46;94541.84;;;7.29;67.64
35892;BME280;21993;42.672;23.296;2023-11-21T01:47:12;94539.00;;;7.43;67.58
35892;BME280;21993;42.672;23.296;2023-11-21T01:49:39;94533.16;;;7.40;68.00
35892;BME280;21993;42.672;23.296;2023-11-21T01:52:05;94531.06;;;7.22;67.75
35892;BME280;21993;42.672;23.296;2023-11-21T01:54:32;94526.47;;;7.15;68.53
35892;BME280;21993;42.672;23.296;2023-11-21T01:56:59;94523.22;;;7.22;68.41
35892;BME280;21993;42.672;23.296;2023-11-21T01:59:35;94540.56;;;7.23;67.30
35892;BME280;21993;42.672;23.296;2023-11-21T02:02:03;94536.91;;;7.15;67.98
35892;BME280;21993;42.672;23.296;2023-11-21T02:04:33;94542.47;;;7.10;68.11
35892;BME280;21993;42.672;23.296;2023-11-21T02:07:00;94534.63;;;7.10;68.47
35892;BME280;21993;42.672;23.296;2023-11-21T02:09:27;94532.28;;;7.07;68.24
35892;BME280;21993;42.672;23.296;2023-11-21T02:11:53;94543.19;;;7.01;68.52
35892;BME280;21993;42.672;23.296;2023-11-21T02:14:20;94541.41;;;7.01;68.56
35892;BME280;21993;42.672;23.296;2023-11-21T02:16:50;94535.94;;;7.04;68.36
35892;BME280;21993;42.672;23.296;2023-11-21T02:19:20;94536.44;;;6.98;68.63
35892;BME280;21993;42.672;23.296;2023-11-21T02:21:51;94524.41;;;6.96;68.97
35892;BME280;21993;42.672;23.296;2023-11-21T02:24:22;94533.81;;;6.98;69.02
35892;BME280;21993;42.672;23.296;2023-11-21T02:26:48;94539.97;;;6.97;69.00
35892;BME280;21993;42.672;23.296;2023-11-21T02:29:17;94524.66;;;7.04;68.70
35892;BME280;21993;42.672;23.296;2023-11-21T02:31:45;94531.66;;;7.03;68.28
35892;BME280;21993;42.672;23.296;2023-11-21T02:34:17;94533.56;;;6.90;68.63
35892;BME280;21993;42.672;23.296;2023-11-21T02:36:44;94529.41;;;6.88;68.77
35892;BME280;21993;42.672;23.296;2023-11-21T02:39:10;94529.28;;;6.89;69.08
35892;BME280;21993;42.672;23.296;2023-11-21T02:41:39;94532.50;;;6.82;69.04
35892;BME280;21993;42.672;23.296;2023-11-21T02:44:08;94530.34;;;6.75;69.33
35892;BME280;21993;42.672;23.296;2023-11-21T02:46:36;94513.03;;;6.86;68.63
35892;BME280;21993;42.672;23.296;2023-11-21T02:49:03;94532.13;;;6.86;68.58
35892;BME280;21993;42.672;23.296;2023-11-21T02:51:29;94519.22;;;6.85;68.88
35892;BME280;21993;42.672;23.296;2023-11-21T02:53:55;94523.72;;;6.83;69.29
35892;BME280;21993;42.672;23.296;2023-11-21T02:56:27;94529.16;;;6.80;68.64
35892;BME280;21993;42.672;23.296;2023-11-21T02:58:55;94522.41;;;6.77;68.90
35892;BME280;21993;42.672;23.296;2023-11-21T03:01:21;94523.94;;;6.68;69.02
35892;BME280;21993;42.672;23.296;2023-11-21T03:03:46;94519.66;;;6.67;69.05
35892;BME280;21993;42.672;23.296;2023-11-21T03:06:18;94506.03;;;6.64;69.78
35892;BME280;21993;42.672;23.296;2023-11-21T03:08:44;94513.63;;;6.67;69.26
35892;BME280;21993;42.672;23.296;2023-11-21T03:11:09;94512.31;;;6.72;69.10
35892;BME280;21993;42.672;23.296;2023-11-21T03:13:35;94516.84;;;6.82;68.52
35892;BME280;21993;42.672;23.296;2023-11-21T03:16:00;94515.88;;;6.71;68.04
35892;BME280;21993;42.672;23.296;2023-11-21T03:18:26;94519.44;;;6.70;68.54
35892;BME280;21993;42.672;23.296;2023-11-21T03:20:54;94523.81;;;6.70;69.21
35892;BME280;21993;42.672;23.296;2023-11-21T03:23:20;94533.09;;;6.74;69.22
35892;BME280;21993;42.672;23.296;2023-11-21T03:25:45;94537.47;;;6.73;68.96
35892;BME280;21993;42.672;23.296;2023-11-21T03:28:11;94533.28;;;6.60;69.38
35892;BME280;21993;42.672;23.296;2023-11-21T03:30:36;94537.56;;;6.61;69.51
35892;BME280;21993;42.672;23.296;2023-11-21T03:33:02;94540.88;;;6.63;69.27
35892;BME280;21993;42.672;23.296;2023-11-21T03:35:27;94543.47;;;6.63;69.27
35892;BME280;21993;42.672;23.296;2023-11-21T03:37:53;94533.66;;;6.66;69.52
35892;BME280;21993;42.672;23.296;2023-11-21T03:40:19;94530.81;;;6.58;69.38
35892;BME280;21993;42.672;23.296;2023-11-21T03:42:46;94523.94;;;6.57;68.92
35892;BME280;21993;42.672;23.296;2023-11-21T03:45:12;94525.09;;;6.53;69.00
35892;BME280;21993;42.672;23.296;2023-11-21T03:47:38;94513.97;;;6.51;69.26
35892;BME280;21993;42.672;23.296;2023-11-21T03:50:04;94510.97;;;6.44;69.88
35892;BME280;21993;42.672;23.296;2023-11-21T03:52:30;94507.28;;;6.47;69.57
35892;BME280;21993;42.672;23.296;2023-11-21T03:54:55;94506.38;;;6.48;69.26
35892;BME280;21993;42.672;23.296;2023-11-21T03:57:21;94503.66;;;6.49;70.00
35892;BME280;21993;42.672;23.296;2023-11-21T03:59:47;94515.25;;;6.45;70.11
35892;BME280;21993;42.672;23.296;2023-11-21T04:02:12;94508.81;;;6.38;70.27
35892;BME280;21993;42.672;23.296;2023-11-21T04:04:38;94500.91;;;6.40;70.25
35892;BME280;21993;42.672;23.296;2023-11-21T04:07:04;94495.56;;;6.41;70.54
35892;BME280;21993;42.672;23.296;2023-11-21T04:09:30;94502.09;;;6.47;70.44
35892;BME280;21993;42.672;23.296;2023-11-21T04:11:55;94505.44;;;6.49;70.54
35892;BME280;21993;42.672;23.296;2023-11-21T04:14:22;94499.16;;;6.52;69.98
35892;BME280;21993;42.672;23.296;2023-11-21T04:16:47;94494.75;;;6.52;69.86
35892;BME280;21993;42.672;23.296;2023-11-21T04:19:14;94497.13;;;6.44;70.18
35892;BME280;21993;42.672;23.296;2023-11-21T04:21:42;94501.50;;;6.43;70.22
35892;BME280;21993;42.672;23.296;2023-11-21T04:24:08;94504.69;;;6.47;69.93
35892;BME280;21993;42.672;23.296;2023-11-21T04:26:33;94496.53;;;6.40;70.78
35892;BME280;21993;42.672;23.296;2023-11-21T04:28:59;94500.09;;;6.39;70.95
35892;BME280;21993;42.672;23.296;2023-11-21T04:31:24;94503.97;;;6.34;71.22
35892;BME280;21993;42.672;23.296;2023-11-21T04:33:50;94504.44;;;6.39;70.63
35892;BME280;21993;42.672;23.296;2023-11-21T04:36:15;94508.50;;;6.43;71.08
35892;BME280;21993;42.672;23.296;2023-11-21T04:38:41;94511.69;;;6.46;70.80
35892;BME280;21993;42.672;23.296;2023-11-21T04:41:07;94500.28;;;6.36;70.69
35892;BME280;21993;42.672;23.296;2023-11-21T04:43:32;94512.06;;;6.42;70.67
35892;BME280;21993;42.672;23.296;2023-11-21T04:45:58;94508.25;;;6.46;70.74
35892;BME280;21993;42.672;23.296;2023-11-21T04:48:23;94508.03;;;6.49;70.62
35892;BME280;21993;42.672;23.296;2023-11-21T04:50:49;94517.72;;;6.47;70.52
35892;BME280;21993;42.672;23.296;2023-11-21T04:53:14;94518.78;;;6.44;70.22
35892;BME280;21993;42.672;23.296;2023-11-21T04:55:43;94513.59;;;6.44;70.52
35892;BME280;21993;42.672;23.296;2023-11-21T04:58:09;94517.25;;;6.42;70.56
35892;BME280;21993;42.672;23.296;2023-11-21T05:00:36;94507.78;;;6.41;70.81
35892;BME280;21993;42.672;23.296;2023-11-21T05:03:02;94517.03;;;6.45;70.45
35892;BME280;21993;42.672;23.296;2023-11-21T05:05:29;94502.69;;;6.51;70.67
35892;BME280;21993;42.672;23.296;2023-11-21T05:07:55;94524.16;;;6.54;70.40
35892;BME280;21993;42.672;23.296;2023-11-21T05:10:21;94508.63;;;6.53;70.20
35892;BME280;21993;42.672;23.296;2023-11-21T05:12:47;94501.38;;;6.45;71.12
35892;BME280;21993;42.672;23.296;2023-11-21T05:15:16;94504.81;;;6.45;70.88
35892;BME280;21993;42.672;23.296;2023-11-21T05:17:43;94504.09;;;6.43;70.74
35892;BME280;21993;42.672;23.296;2023-11-21T05:20:15;94495.56;;;6.41;70.80
35892;BME280;21993;42.672;23.296;2023-11-21T05:22:45;94501.63;;;6.42;70.94
35892;BME280;21993;42.672;23.296;2023-11-21T05:25:11;94498.19;;;6.41;70.89
35892;BME280;21993;42.672;23.296;2023-11-21T05:27:37;94501.00;;;6.38;71.15
35892;BME280;21993;42.672;23.296;2023-11-21T05:30:03;94511.34;;;6.40;71.02
35892;BME280;21993;42.672;23.296;2023-11-21T05:32:34;94509.81;;;6.48;70.64
35892;BME280;21993;42.672;23.296;2023-11-21T05:35:00;94509.69;;;6.50;70.63
35892;BME280;21993;42.672;23.296;2023-11-21T05:37:26;94516.91;;;6.46;71.53
35892;BME280;21993;42.672;23.296;2023-11-21T05:39:53;94518.09;;;6.54;71.06
35892;BME280;21993;42.672;23.296;2023-11-21T05:42:18;94521.09;;;6.60;70.70
35892;BME280;21993;42.672;23.296;2023-11-21T05:44:44;94520.97;;;6.62;70.73
35892;BME280;21993;42.672;23.296;2023-11-21T05:47:10;94521.66;;;6.64;70.56
35892;BME280;21993;42.672;23.296;2023-11-21T05:49:36;94518.13;;;6.65;70.46
35892;BME280;21993;42.672;23.296;2023-11-21T05:52:02;94512.44;;;6.60;70.38
35892;BME280;21993;42.672;23.296;2023-11-21T05:54:27;94507.91;;;6.62;70.56
35892;BME280;21993;42.672;23.296;2023-11-21T05:56:53;94509.38;;;6.66;70.36
35892;BME280;21993;42.672;23.296;2023-11-21T05:59:19;94507.47;;;6.68;70.79
35892;BME280;21993;42.672;23.296;2023-11-21T06:01:45;94519.44;;;6.70;70.55
35892;BME280;21993;42.672;23.296;2023-11-21T06:04:11;94518.97;;;6.76;70.54
35892;BME280;21993;42.672;23.296;2023-11-21T06:06:36;94516.00;;;6.70;70.21
35892;BME280;21993;42.672;23.296;2023-11-21T06:09:02;94508.28;;;6.68;70.72
35892;BME280;21993;42.672;23.296;2023-11-21T06:11:28;94509.38;;;6.77;70.26
35892;BME280;21993;42.672;23.296;2023-11-21T06:13:53;94523.34;;;6.76;70.37
35892;BME280;21993;42.672;23.296;2023-11-21T06:16:19;94525.47;;;6.71;70.14
35892;BME280;21993;42.672;23.296;2023-11-21T06:18:48;94528.31;;;6.79;70.43
35892;BME280;21993;42.672;23.296;2023-11-21T06:21:13;94527.97;;;6.72;70.58
35892;BME280;21993;42.672;23.296;2023-11-21T06:23:39;94533.53;;;6.79;70.44
35892;BME280;21993;42.672;23.296;2023-11-21T06:26:05;94532.84;;;6.77;70.01
35892;BME280;21993;42.672;23.296;2023-11-21T06:28:31;94533.41;;;6.81;70.30
35892;BME280;21993;42.672;23.296;2023-11-21T06:30:57;94531.75;;;6.80;70.44
35892;BME280;21993;42.672;23.296;2023-11-21T06:33:31;94537.09;;;6.89;70.01
35892;BME280;21993;42.672;23.296;2023-11-21T06:35:56;94534.72;;;6.97;69.63
35892;BME280;21993;42.672;23.296;2023-11-21T06:38:22;94543.19;;;7.01;69.33
35892;BME280;21993;42.672;23.296;2023-11-21T06:40:47;94548.41;;;7.01;69.30
35892;BME280;21993;42.672;23.296;2023-11-21T06:43:13;94552.41;;;7.05;70.09
35892;BME280;21993;42.672;23.296;2023-11-21T06:45:39;94547.56;;;7.12;69.46
35892;BME280;21993;42.672;23.296;2023-11-21T06:48:05;94554.44;;;7.13;69.63
35892;BME280;21993;42.672;23.296;2023-11-21T06:50:30;94558.25;;;7.20;68.95
35892;BME280;21993;42.672;23.296;2023-11-21T06:52:56;94551.22;;;7.20;69.47
35892;BME280;21993;42.672;23.296;2023-11-21T06:55:21;94552.91;;;7.32;68.93
35892;BME280;21993;42.672;23.296;2023-11-21T06:57:47;94544.69;;;7.37;68.89
35892;BME280;21993;42.672;23.296;2023-11-21T07:00:15;94547.53;;;7.45;69.13
35892;BME280;21993;42.672;23.296;2023-11-21T07:02:43;94550.38;;;7.53;67.95
35892;BME280;21993;42.672;23.296;2023-11-21T07:05:09;94553.22;;;7.61;67.10
35892;BME280;21993;42.672;23.296;2023-11-21T07:07:34;94555.47;;;7.66;67.82
35892;BME280;21993;42.672;23.296;2023-11-21T07:10:01;94550.47;;;7.63;67.36
35892;BME280;21993;42.672;23.296;2023-11-21T07:12:31;94550.09;;;7.79;66.80
35892;BME280;21993;42.672;23.296;2023-11-21T07:14:57;94535.56;;;7.86;66.87
35892;BME280;21993;42.672;23.296;2023-11-21T07:17:23;94531.06;;;7.88;66.58
35892;BME280;21993;42.672;23.296;2023-11-21T07:19:49;94533.66;;;7.88;66.38
35892;BME280;21993;42.672;23.296;2023-11-21T07:22:15;94535.66;;;7.96;66.16
35892;BME280;21993;42.672;23.296;2023-11-21T07:24:48;94534.09;;;8.04;66.20
35892;BME280;21993;42.672;23.296;2023-11-21T07:27:15;94536.47;;;8.07;65.52
35892;BME280;21993;42.672;23.296;2023-11-21T07:29:40;94544.66;;;8.03;66.24
35892;BME280;21993;42.672;23.296;2023-11-21T07:32:06;94544.06;;;8.10;65.82
35892;BME280;21993;42.672;23.296;2023-11-21T07:34:33;94543.66;;;8.15;66.77
35892;BME280;21993;42.672;23.296;2023-11-21T07:36:59;94545.56;;;8.24;66.03
35892;BME280;21993;42.672;23.296;2023-11-21T07:39:24;94544.25;;;8.18;65.78
35892;BME280;21993;42.672;23.296;2023-11-21T07:41:50;94534.69;;;8.29;65.91
35892;BME280;21993;42.672;23.296;2023-11-21T07:44:16;94542.00;;;8.46;64.61
35892;BME280;21993;42.672;23.296;2023-11-21T07:46:45;94545.72;;;8.43;65.49
35892;BME280;21993;42.672;23.296;2023-11-21T07:49:12;94529.06;;;8.44;64.95
35892;BME280;21993;42.672;23.296;2023-11-21T07:51:41;94531.34;;;8.38;65.07
35892;BME280;21993;42.672;23.296;2023-11-21T07:54:07;94534.84;;;8.48;64.93
35892;BME280;21993;42.672;23.296;2023-11-21T07:56:32;94530.91;;;8.54;64.69
35892;BME280;21993;42.672;23.296;2023-11-21T07:58:58;94528.69;;;8.70;64.66
35892;BME280;21993;42.672;23.296;2023-11-21T08:01:24;94525.38;;;8.68;64.78
35892;BME280;21993;42.672;23.296;2023-11-21T08:03:49;94522.63;;;8.69;65.09
35892;BME280;21993;42.672;23.296;2023-11-21T08:06:17;94514.75;;;8.69;64.96
35892;BME280;21993;42.672;23.296;2023-11-21T08:08:42;94524.84;;;8.74;64.37
35892;BME280;21993;42.672;23.296;2023-11-21T08:11:08;94513.63;;;8.83;64.24
35892;BME280;21993;42.672;23.296;2023-11-21T08:13:35;94524.25;;;8.91;63.84
35892;BME280;21993;42.672;23.296;2023-11-21T08:16:00;94517.00;;;9.05;62.90
35892;BME280;21993;42.672;23.296;2023-11-21T08:18:30;94517.47;;;9.10;62.64
35892;BME280;21993;42.672;23.296;2023-11-21T08:20:56;94518.97;;;9.12;63.70
35892;BME280;21993;42.672;23.296;2023-11-21T08:23:22;94508.13;;;9.17;63.23
35892;BME280;21993;42.672;23.296;2023-11-21T08:25:52;94511.44;;;9.19;63.20
35892;BME280;21993;42.672;23.296;2023-11-21T08:28:18;94509.00;;;9.37;62.50
35892;BME280;21993;42.672;23.296;2023-11-21T08:30:44;94518.78;;;9.35;62.38
35892;BME280;21993;42.672;23.296;2023-11-21T08:33:09;94508.72;;;9.40;62.34
35892;BME280;21993;42.672;23.296;2023-11-21T08:35:37;94518.97;;;9.52;62.02
35892;BME280;21993;42.672;23.296;2023-11-21T08:38:03;94516.38;;;9.62;61.28
35892;BME280;21993;42.672;23.296;2023-11-21T08:40:29;94508.69;;;9.80;61.33
35892;BME280;21993;42.672;23.296;2023-11-21T08:42:54;94504.69;;;9.85;60.70
35892;BME280;21993;42.672;23.296;2023-11-21T08:45:21;94509.66;;;9.88;60.65
35892;BME280;21993;42.672;23.296;2023-11-21T08:47:47;94504.56;;;9.97;60.00
35892;BME280;21993;42.672;23.296;2023-11-21T08:50:13;94509.41;;;10.01;60.42
35892;BME280;21993;42.672;23.296;2023-11-21T08:52:40;94506.63;;;9.93;60.34
35892;BME280;21993;42.672;23.296;2023-11-21T08:55:06;94502.50;;;10.10;59.97
35892;BME280;21993;42.672;23.296;2023-11-21T08:57:38;94487.47;;;10.12;60.52
35892;BME280;21993;42.672;23.296;2023-11-21T09:00:04;94485.28;;;10.27;59.39
35892;BME280;21993;42.672;23.296;2023-11-21T09:02:37;94480.72;;;10.29;59.32
35892;BME280;21993;42.672;23.296;2023-11-21T09:05:04;94470.78;;;10.23;59.78
35892;BME280;21993;42.672;23.296;2023-11-21T09:07:29;94446.47;;;10.30;59.57
35892;BME280;21993;42.672;23.296;2023-11-21T09:09:56;94446.44;;;10.40;59.23
35892;BME280;21993;42.672;23.296;2023-11-21T09:12:21;94450.31;;;10.46;59.18
35892;BME280;21993;42.672;23.296;2023-11-21T09:14:47;94436.94;;;10.29;59.76
35892;BME280;21993;42.672;23.296;2023-11-21T09:17:12;94440.38;;;10.39;59.40
35892;BME280;21993;42.672;23.296;2023-11-21T09:19:40;94429.59;;;10.33;59.51
35892;BME280;21993;42.672;23.296;2023-11-21T09:22:05;94430.31;;;10.35;59.27
35892;BME280;21993;42.672;23.296;2023-11-21T09:24:34;94427.00;;;10.42;59.45
35892;BME280;21993;42.672;23.296;2023-11-21T09:26:59;94411.63;;;10.48;58.89
35892;BME280;21993;42.672;23.296;2023-11-21T09:29:26;94417.66;;;10.58;58.78
35892;BME280;21993;42.672;23.296;2023-11-21T09:31:51;94401.69;;;10.51;58.42
35892;BME280;21993;42.672;23.296;2023-11-21T09:34:17;94398.78;;;10.54;58.61
35892;BME280;21993;42.672;23.296;2023-11-21T09:36:46;94382.31;;;10.62;58.82
35892;BME280;21993;42.672;23.296;2023-11-21T09:39:12;94394.97;;;10.66;59.04
35892;BME280;21993;42.672;23.296;2023-11-21T09:41:59;94376.44;;;10.78;58.44
35892;BME280;21993;42.672;23.296;2023-11-21T09:44:35;94377.13;;;11.07;58.28
35892;BME280;21993;42.672;23.296;2023-11-21T09:47:01;94372.09;;;11.14;58.16
35892;BME280;21993;42.672;23.296;2023-11-21T09:49:28;94363.66;;;11.38;57.41
35892;BME280;21993;42.672;23.296;2023-11-21T09:51:58;94346.69;;;11.50;57.03
35892;BME280;21993;42.672;23.296;2023-11-21T09:54:27;94336.88;;;11.52;56.76
35892;BME280;21993;42.672;23.296;2023-11-21T09:56:54;94336.56;;;11.55;56.60
35892;BME280;21993;42.672;23.296;2023-11-21T09:59:21;94331.59;;;11.70;56.60
35892;BME280;21993;42.672;23.296;2023-11-21T10:01:47;94341.91;;;11.81;56.30
35892;BME280;21993;42.672;23.296;2023-11-21T10:04:13;94341.38;;;11.95;56.59
35892;BME280;21993;42.672;23.296;2023-11-21T10:06:40;94339.72;;;11.94;56.05
35892;BME280;21993;42.672;23.296;2023-11-21T10:09:12;94332.19;;;12.25;54.89
35892;BME280;21993;42.672;23.296;2023-11-21T10:11:42;94326.84;;;12.43;55.20
35892;BME280;21993;42.672;23.296;2023-11-21T10:14:12;94321.91;;;12.74;54.66
35892;BME280;21993;42.672;23.296;2023-11-21T10:16:40;94315.28;;;13.04;53.19
35892;BME280;21993;42.672;23.296;2023-11-21T10:19:06;94312.16;;;13.17;53.14
35892;BME280;21993;42.672;23.296;2023-11-21T10:21:35;94300.53;;;13.28;52.05
35892;BME280;21993;42.672;23.296;2023-11-21T10:24:00;94299.53;;;13.37;52.27
35892;BME280;21993;42.672;23.296;2023-11-21T10:26:28;94297.59;;;13.47;51.57
35892;BME280;21993;42.672;23.296;2023-11-21T10:29:00;94297.25;;;13.42;51.83
35892;BME280;21993;42.672;23.296;2023-11-21T10:31:32;94300.72;;;13.50;51.79
35892;BME280;21993;42.672;23.296;2023-11-21T10:34:13;94295.13;;;13.53;51.00
35892;BME280;21993;42.672;23.296;2023-11-21T10:36:39;94295.97;;;13.54;51.10
35892;BME280;21993;42.672;23.296;2023-11-21T10:39:05;94288.88;;;13.55;51.01
35892;BME280;21993;42.672;23.296;2023-11-21T10:41:30;94284.91;;;13.59;50.56
35892;BME280;21993;42.672;23.296;2023-11-21T10:43:56;94284.44;;;13.63;50.81
35892;BME280;21993;42.672;23.296;2023-11-21T10:46:21;94285.56;;;13.61;51.02
35892;BME280;21993;42.672;23.296;2023-11-21T10:48:53;94280.97;;;13.63;50.53
35892;BME280;21993;42.672;23.296;2023-11-21T10:51:22;94283.28;;;13.66;50.27
35892;BME280;21993;42.672;23.296;2023-11-21T10:53:51;94278.63;;;13.60;50.30
35892;BME280;21993;42.672;23.296;2023-11-21T10:56:18;94269.88;;;13.27;51.12
35892;BME280;21993;42.672;23.296;2023-11-21T10:58:48;94270.25;;;13.48;51.12
35892;BME280;21993;42.672;23.296;2023-11-21T11:01:17;94266.28;;;13.44;51.22
35892;BME280;21993;42.672;23.296;2023-11-21T11:03:44;94259.69;;;13.40;50.45
35892;BME280;21993;42.672;23.296;2023-11-21T11:06:10;94264.97;;;13.40;50.83
35892;BME280;21993;42.672;23.296;2023-11-21T11:08:39;94258.34;;;13.44;50.91
35892;BME280;21993;42.672;23.296;2023-11-21T11:11:07;94257.22;;;13.38;51.07
35892;BME280;21993;42.672;23.296;2023-11-21T11:13:34;94248.50;;;13.38;51.20
35892;BME280;21993;42.672;23.296;2023-11-21T11:16:01;94246.00;;;13.44;51.04
35892;BME280;21993;42.672;23.296;2023-11-21T11:18:28;94254.41;;;13.32;51.02
35892;BME280;21993;42.672;23.296;2023-11-21T11:21:01;94235.63;;;13.27;50.67
35892;BME280;21993;42.672;23.296;2023-11-21T11:26:32;94216.97;;;13.20;51.54
35892;BME280;21993;42.672;23.296;2023-11-21T11:34:33;94218.28;;;13.16;50.83
35892;BME280;21993;42.672;23.296;2023-11-21T11:37:03;94213.84;;;13.16;51.00
35892;BME280;21993;42.672;23.296;2023-11-21T11:39:37;94212.34;;;13.06;51.21
35892;BME280;21993;42.672;23.296;2023-11-21T11:42:08;94212.19;;;13.07;52.01
35892;BME280;21993;42.672;23.296;2023-11-21T11:47:31;94236.38;;;13.03;53.56
35892;BME280;21993;42.672;23.296;2023-11-21T11:50:09;94232.09;;;13.10;55.04
35892;BME280;21993;42.672;23.296;2023-11-21T11:52:45;94236.06;;;13.06;54.22
35892;BME280;21993;42.672;23.296;2023-11-21T11:55:13;94228.97;;;13.06;55.57
35892;BME280;21993;42.672;23.296;2023-11-21T11:57:40;94227.66;;;13.10;56.74
35892;BME280;21993;42.672;23.296;2023-11-21T12:00:20;94208.88;;;13.05;56.84
35892;BME280;21993;42.672;23.296;2023-11-21T12:02:57;94226.81;;;13.02;57.36
35892;BME280;21993;42.672;23.296;2023-11-21T12:05:24;94230.94;;;12.96;58.24
35892;BME280;21993;42.672;23.296;2023-11-21T12:07:53;94228.94;;;12.90;59.92
35892;BME280;21993;42.672;23.296;2023-11-21T12:10:25;94228.28;;;12.88;60.17
35892;BME280;21993;42.672;23.296;2023-11-21T12:12:55;94235.66;;;12.76;62.14
35892;BME280;21993;42.672;23.296;2023-11-21T12:15:22;94230.38;;;12.68;63.37
35892;BME280;21993;42.672;23.296;2023-11-21T12:17:49;94247.31;;;12.65;65.22
35892;BME280;21993;42.672;23.296;2023-11-21T12:20:18;94240.25;;;12.66;63.04
35892;BME280;21993;42.672;23.296;2023-11-21T12:22:48;94231.66;;;12.56;62.81
35892;BME280;21993;42.672;23.296;2023-11-21T12:25:16;94219.97;;;12.58;63.23
35892;BME280;21993;42.672;23.296;2023-11-21T12:27:44;94216.66;;;12.48;64.08
35892;BME280;21993;42.672;23.296;2023-11-21T12:30:11;94233.59;;;12.46;64.51
35892;BME280;21993;42.672;23.296;2023-11-21T12:32:41;94242.63;;;12.43;65.57
35892;BME280;21993;42.672;23.296;2023-11-21T12:35:09;94239.00;;;12.36;65.08
35892;BME280;21993;42.672;23.296;2023-11-21T12:37:36;94233.72;;;12.36;63.75
35892;BME280;21993;42.672;23.296;2023-11-21T12:40:04;94217.75;;;12.29;64.20
35892;BME280;21993;42.672;23.296;2023-11-21T12:42:30;94225.44;;;12.23;63.94
35892;BME280;21993;42.672;23.296;2023-11-21T12:45:18;94223.25;;;12.18;63.16
35892;BME280;21993;42.672;23.296;2023-11-21T12:47:52;94215.72;;;12.23;63.51
35892;BME280;21993;42.672;23.296;2023-11-21T12:50:23;94214.25;;;12.21;64.70
35892;BME280;21993;42.672;23.296;2023-11-21T12:52:52;94198.91;;;12.16;64.44
35892;BME280;21993;42.672;23.296;2023-11-21T12:55:22;94196.63;;;12.13;64.99
35892;BME280;21993;42.672;23.296;2023-11-21T12:57:53;94196.25;;;12.08;65.02
35892;BME280;21993;42.672;23.296;2023-11-21T13:00:31;94189.50;;;12.05;65.63
35892;BME280;21993;42.672;23.296;2023-11-21T13:02:58;94190.94;;;12.00;65.95
35892;BME280;21993;42.672;23.296;2023-11-21T13:05:27;94190.94;;;12.00;65.37
35892;BME280;21993;42.672;23.296;2023-11-21T13:07:57;94184.56;;;12.02;63.63
35892;BME280;21993;42.672;23.296;2023-11-21T13:10:26;94186.50;;;12.00;64.45